createdAt,value
2022-11-20T00:01:27.684Z,997.4
2022-11-20T00:05:10.085Z,997.4
2022-11-20T00:10:14.886Z,997.4
2022-11-20T00:15:19.571Z,997.4
2022-11-20T00:20:16.096Z,997.4
2022-11-20T00:25:12.613Z,997.5
2022-11-20T00:30:17.423Z,997.4
2022-11-20T00:32:53.800Z,997.4
2022-11-20T00:35:22.055Z,997.4
2022-11-20T00:39:12.676Z,997.3
2022-11-20T00:41:40.967Z,997.3
2022-11-20T00:44:09.189Z,997.3
2022-11-20T00:49:13.925Z,997.4
2022-11-20T00:52:56.285Z,997.4
2022-11-20T00:55:24.582Z,997.4
2022-11-20T00:57:52.854Z,997.4
2022-11-20T01:01:43.459Z,997.5
2022-11-20T01:04:11.715Z,997.4
2022-11-20T01:08:02.281Z,997.5
2022-11-20T01:10:30.541Z,997.4
2022-11-20T01:12:58.840Z,997.4
2022-11-20T01:15:27.113Z,997.4
2022-11-20T01:17:55.367Z,997.3
2022-11-20T01:21:45.942Z,997.4
2022-11-20T01:24:14.221Z,997.3
2022-11-20T01:26:42.483Z,997.3
2022-11-20T01:29:10.759Z,997.3
2022-11-20T01:31:38.984Z,997.3
2022-11-20T01:34:07.285Z,997.3
2022-11-20T01:36:35.567Z,997.3
2022-11-20T01:41:32.091Z,997.3
2022-11-20T01:44:00.345Z,997.3
2022-11-20T01:46:28.604Z,997.3
2022-11-20T01:50:19.310Z,997.2
2022-11-20T01:52:55.666Z,997.3
2022-11-20T01:55:23.904Z,997.2
2022-11-20T01:59:14.551Z,997.2
2022-11-20T02:03:05.116Z,997.2
2022-11-20T02:05:33.396Z,997.2
2022-11-20T02:09:15.763Z,997.2
2022-11-20T02:12:58.177Z,997.2
2022-11-20T02:15:30.212Z,997.2
2022-11-20T02:19:08.830Z,997.2
2022-11-20T02:22:51.264Z,997.2
2022-11-20T02:25:19.499Z,997.1
2022-11-20T02:29:10.086Z,997.1
2022-11-20T02:34:06.604Z,997
2022-11-20T02:40:25.465Z,997
2022-11-20T02:45:13.832Z,997
2022-11-20T02:50:18.660Z,997
2022-11-20T02:54:17.360Z,997
2022-11-20T02:59:13.963Z,997
2022-11-20T03:04:26.803Z,997
2022-11-20T03:13:22.176Z,997
2022-11-20T03:17:12.702Z,997
2022-11-20T03:22:25.616Z,997
2022-11-20T03:31:20.997Z,996.9
2022-11-20T03:35:19.699Z,996.9
2022-11-20T03:40:24.456Z,996.8
2022-11-20T03:44:15.118Z,996.9
2022-11-20T03:53:18.534Z,996.8
2022-11-20T03:58:15.271Z,996.7
2022-11-20T04:02:05.763Z,996.7
2022-11-20T04:07:10.442Z,996.7
2022-11-20T04:12:15.187Z,996.8
2022-11-20T04:17:28.027Z,996.8
2022-11-20T04:21:18.643Z,996.9
2022-11-20T04:25:09.293Z,996.8
2022-11-20T04:30:14.052Z,996.7
2022-11-20T04:35:18.646Z,996.7
2022-11-20T04:40:15.288Z,996.7
2022-11-20T04:44:14.006Z,996.6
2022-11-20T04:49:10.515Z,996.5
2022-11-20T04:54:07.048Z,996.6
2022-11-20T05:05:22.520Z,996.6
2022-11-20T05:07:58.898Z,996.6
2022-11-20T05:11:51.562Z,996.5
2022-11-20T05:14:17.798Z,996.5
2022-11-20T05:16:46.050Z,996.5
2022-11-20T05:19:14.335Z,996.5
2022-11-20T05:21:42.585Z,996.5
2022-11-20T05:25:08.625Z,996.5
2022-11-20T05:27:36.836Z,996.5
2022-11-20T05:31:23.561Z,996.5
2022-11-20T05:36:24.018Z,996.4
2022-11-20T05:46:17.156Z,996.4
2022-11-20T05:51:21.779Z,996.4
2022-11-20T05:55:12.427Z,996.3
2022-11-20T06:04:07.682Z,996.4
2022-11-20T06:10:18.316Z,996.3
2022-11-20T06:15:14.876Z,996.3
2022-11-20T06:25:16.132Z,996.4
2022-11-20T06:27:44.444Z,996.4
2022-11-20T06:31:26.802Z,996.3
2022-11-20T06:35:09.212Z,996.3
2022-11-20T06:37:37.541Z,996.3
2022-11-20T06:40:05.727Z,996.3
2022-11-20T06:42:33.983Z,996.4
2022-11-20T06:45:02.290Z,996.3
2022-11-20T06:47:30.576Z,996.4
2022-11-20T06:49:58.825Z,996.4
2022-11-20T06:56:25.852Z,996.4
2022-11-20T07:05:12.975Z,996.1
2022-11-20T07:15:06.079Z,996.5
2022-11-20T07:21:16.711Z,996.5
2022-11-20T07:27:35.656Z,996.5
2022-11-20T07:30:12.027Z,996.6
2022-11-20T07:34:02.617Z,996.6
2022-11-20T07:37:28.622Z,996.5
2022-11-20T07:41:11.001Z,996.5
2022-11-20T07:45:01.652Z,996.5
2022-11-20T07:47:29.876Z,996.5
2022-11-20T07:51:20.473Z,996.4
2022-11-20T07:53:48.748Z,996.5
2022-11-20T07:56:16.988Z,996.5
2022-11-20T07:58:45.281Z,996.5
2022-11-20T08:02:35.870Z,996.6
2022-11-20T08:05:04.143Z,996.6
2022-11-20T08:07:32.425Z,996.6
2022-11-20T08:11:22.996Z,996.7
2022-11-20T08:13:51.260Z,996.6
2022-11-20T08:17:41.931Z,996.7
2022-11-20T08:21:36.785Z,996.7
2022-11-20T08:25:14.863Z,996.8
2022-11-20T08:27:43.077Z,996.8
2022-11-20T08:31:25.525Z,996.8
2022-11-20T08:34:51.538Z,996.8
2022-11-20T08:37:19.802Z,996.9
2022-11-20T08:39:48.062Z,996.9
2022-11-20T08:42:16.334Z,996.9
2022-11-20T08:51:11.635Z,997
2022-11-20T08:56:16.368Z,997
2022-11-20T09:01:21.280Z,997
2022-11-20T09:15:12.965Z,996.5
2022-11-20T09:25:14.332Z,997.1
2022-11-20T09:34:01.290Z,997.1
2022-11-20T09:40:20.311Z,997.1
2022-11-20T09:44:10.766Z,997.1
2022-11-20T09:49:07.383Z,997.3
2022-11-20T09:54:12.023Z,997.2
2022-11-20T09:59:16.769Z,997.2
2022-11-20T10:04:13.275Z,996.7
2022-11-20T10:09:09.831Z,997.3
2022-11-20T10:15:36.862Z,997.3
2022-11-20T10:18:05.161Z,997.3
2022-11-20T10:21:55.726Z,997.3
2022-11-20T10:25:46.318Z,997.2
2022-11-20T10:28:14.624Z,997.1
2022-11-20T10:32:05.207Z,997.1
2022-11-20T10:35:31.162Z,997.1
2022-11-20T10:37:59.489Z,997.1
2022-11-20T10:41:41.866Z,997.1
2022-11-20T10:45:32.440Z,997.1
2022-11-20T10:48:00.704Z,997.1
2022-11-20T10:51:43.116Z,997
2022-11-20T10:55:25.512Z,997
2022-11-20T10:57:53.795Z,997
2022-11-20T11:01:36.253Z,997
2022-11-20T11:05:18.596Z,996.8
2022-11-20T11:07:46.834Z,996.9
2022-11-20T11:15:28.130Z,996.8
2022-11-20T11:19:18.671Z,996.7
2022-11-20T11:23:09.321Z,996.7
2022-11-20T11:28:22.130Z,996.5
2022-11-20T11:33:26.952Z,996.6
2022-11-20T11:37:09.381Z,996.5
2022-11-20T11:42:13.984Z,996.4
2022-11-20T11:47:10.512Z,996.3
2022-11-20T11:52:15.259Z,996.3
2022-11-20T11:57:11.783Z,996.3
2022-11-20T12:02:08.342Z,996.2
2022-11-20T12:07:31.360Z,996.1
2022-11-20T12:12:17.767Z,996.2
2022-11-20T12:16:08.441Z,996.2
2022-11-20T12:21:13.089Z,995.6
2022-11-20T12:26:09.633Z,996.2
2022-11-20T12:32:20.279Z,996.2
2022-11-20T12:34:48.571Z,996.1
2022-11-20T12:37:08.668Z,996.1
2022-11-20T12:43:19.372Z,996.2
2022-11-20T12:47:09.870Z,996.2
2022-11-20T12:52:06.437Z,996
2022-11-20T12:58:17.172Z,996.1
2022-11-20T13:02:15.869Z,996.1
2022-11-20T13:07:20.626Z,995.9
2022-11-20T13:12:25.319Z,996
2022-11-20T13:16:15.891Z,995.9
2022-11-20T13:26:25.354Z,995.9
2022-11-20T13:30:15.974Z,995.9
2022-11-20T13:35:20.646Z,995.8
2022-11-20T13:40:09.092Z,995.7
2022-11-20T13:45:21.911Z,995.7
2022-11-20T13:50:18.486Z,995.6
2022-11-20T13:55:15.018Z,995.6
2022-11-20T14:00:11.620Z,995.6
2022-11-20T14:05:08.047Z,995.5
2022-11-20T14:08:58.641Z,995.5
2022-11-20T14:12:41.066Z,995.5
2022-11-20T14:16:31.662Z,995.4
2022-11-20T14:18:59.896Z,995.4
2022-11-20T14:22:42.313Z,995.3
2022-11-20T14:26:24.742Z,995.3
2022-11-20T14:28:52.952Z,995.3
2022-11-20T14:32:35.417Z,995.3
2022-11-20T14:37:17.129Z,995.3
2022-11-20T14:46:10.947Z,995.1
2022-11-20T14:55:14.355Z,995
2022-11-20T15:00:10.881Z,995.1
2022-11-20T15:05:07.450Z,995
2022-11-20T15:16:22.810Z,994.9
2022-11-20T15:18:51.070Z,994.9
2022-11-20T15:22:33.493Z,994.9
2022-11-20T15:26:24.060Z,995
2022-11-20T15:28:52.372Z,995
2022-11-20T15:32:34.755Z,995
2022-11-20T15:36:25.343Z,995
2022-11-20T15:38:53.625Z,994.9
2022-11-20T15:42:36.030Z,994.9
2022-11-20T15:46:18.404Z,994.8
2022-11-20T15:49:44.396Z,994.7
2022-11-20T15:52:12.671Z,994.7
2022-11-20T15:54:40.910Z,994.7
2022-11-20T15:57:09.225Z,994.7
2022-11-20T16:02:18.849Z,994.6
2022-11-20T16:07:10.453Z,994.6
2022-11-20T16:13:29.324Z,994.5
2022-11-20T16:17:19.923Z,994.5
2022-11-20T16:22:16.521Z,994.5
2022-11-20T16:26:15.244Z,994.4
2022-11-20T16:31:11.765Z,994.4
2022-11-20T16:36:08.286Z,994.3
2022-11-20T16:42:18.961Z,994.3
2022-11-20T16:47:15.481Z,994.2
2022-11-20T16:53:26.148Z,994.2
2022-11-20T16:57:08.573Z,994.2
2022-11-20T17:03:27.435Z,994.2
2022-11-20T17:07:09.905Z,994.2
2022-11-20T17:13:20.502Z,994.1
2022-11-20T17:17:11.069Z,994
2022-11-20T17:19:39.347Z,994
2022-11-20T17:22:07.612Z,993.9
2022-11-20T17:25:58.231Z,993.9
2022-11-20T17:28:26.462Z,994
2022-11-20T17:32:08.908Z,993.9
2022-11-20T17:37:13.620Z,993.8
2022-11-20T17:39:41.858Z,993.8
2022-11-20T17:42:10.148Z,993.7
2022-11-20T17:44:38.397Z,993.7
2022-11-20T17:47:06.676Z,993.7
2022-11-20T17:49:34.922Z,993.7
2022-11-20T17:52:03.183Z,993.6
2022-11-20T17:55:45.621Z,993.7
2022-11-20T17:59:27.972Z,993.7
2022-11-20T18:02:04.493Z,993.7
2022-11-20T18:13:11.661Z,993.7
2022-11-20T18:16:54.064Z,993.6
2022-11-20T18:21:50.585Z,993.6
2022-11-20T18:24:18.828Z,993.6
2022-11-20T18:28:01.238Z,993.6
2022-11-20T18:31:43.635Z,993.5
2022-11-20T18:36:48.401Z,993.5
2022-11-20T18:41:53.104Z,993.4
2022-11-20T18:45:35.521Z,993.3
2022-11-20T18:49:17.879Z,993.2
2022-11-20T18:53:00.307Z,993.3
2022-11-20T18:56:42.700Z,993.1
2022-11-20T19:01:39.250Z,993.1
2022-11-20T19:04:07.502Z,993.1
2022-11-20T19:07:49.941Z,993.2
2022-11-20T19:12:46.444Z,993.2
2022-11-20T19:15:14.679Z,993
2022-11-20T19:18:57.366Z,993.2
2022-11-20T19:22:47.699Z,993.2
2022-11-20T19:25:15.964Z,993.1
2022-11-20T19:27:44.209Z,993.2
2022-11-20T19:30:12.494Z,993.1
2022-11-20T19:32:40.735Z,993.1
2022-11-20T19:35:09.013Z,993.1
2022-11-20T19:38:35.054Z,993.2
2022-11-20T19:41:03.321Z,993.1
2022-11-20T19:44:53.909Z,993.1
2022-11-20T19:47:22.878Z,993.1
2022-11-20T19:49:50.425Z,993.1
2022-11-20T19:53:41.003Z,993.1
2022-11-20T19:56:09.256Z,993.1
2022-11-20T19:58:37.565Z,993.1
2022-11-20T20:01:05.832Z,993
2022-11-20T20:03:34.110Z,993
2022-11-20T20:06:02.355Z,993
2022-11-20T20:08:30.597Z,992.9
2022-11-20T20:10:59.714Z,992.9
2022-11-20T20:14:49.489Z,992.9
2022-11-20T20:17:17.739Z,993
2022-11-20T20:19:46.042Z,993.1
2022-11-20T20:22:14.247Z,993.1
2022-11-20T20:24:42.567Z,993.2
2022-11-20T20:27:10.799Z,993.2
2022-11-20T20:30:53.215Z,993.2
2022-11-20T20:34:35.649Z,993.2
2022-11-20T20:37:03.873Z,993.1
2022-11-20T20:40:46.313Z,993.1
2022-11-20T20:43:22.740Z,993.1
2022-11-20T20:48:27.502Z,993
2022-11-20T20:52:09.925Z,993.1
2022-11-20T21:03:28.279Z,993.2
2022-11-20T21:07:15.924Z,993.2
2022-11-20T21:12:20.660Z,993.2
2022-11-20T21:16:11.168Z,993.3
2022-11-20T21:21:07.675Z,993.3
2022-11-20T21:26:12.397Z,993.2
2022-11-20T21:31:08.986Z,993.2
2022-11-20T21:41:18.409Z,993.3
2022-11-20T21:46:23.138Z,993.3
2022-11-20T21:51:27.854Z,993.1
2022-11-20T21:55:18.452Z,993.1
2022-11-20T22:00:06.761Z,993
2022-11-20T22:05:11.499Z,993.1
2022-11-20T22:15:39.163Z,992.9
2022-11-20T22:19:11.527Z,992.9
2022-11-20T22:24:16.295Z,992.8
2022-11-20T22:29:21.049Z,992.2
2022-11-20T22:34:25.860Z,992.7
2022-11-20T22:38:08.214Z,992.9
2022-11-20T22:43:12.837Z,992.2
2022-11-20T22:48:09.400Z,992.7
2022-11-20T22:54:20.154Z,992.8
2022-11-20T22:56:56.483Z,992.9
2022-11-20T22:59:24.800Z,992.8
2022-11-20T23:01:53.035Z,992.8
2022-11-20T23:05:43.635Z,992.9
2022-11-20T23:09:34.246Z,992.9
2022-11-20T23:15:53.324Z,992.9
2022-11-20T23:18:21.415Z,993
2022-11-20T23:22:03.777Z,993.1
2022-11-20T23:25:46.205Z,993.1
2022-11-20T23:28:14.434Z,993.1
2022-11-20T23:32:05.026Z,993
2022-11-20T23:35:55.643Z,993
2022-11-20T23:38:23.929Z,992.9
2022-11-20T23:42:06.282Z,992.9
2022-11-20T23:45:32.301Z,993
2022-11-20T23:48:00.558Z,992.8
2022-11-20T23:51:42.977Z,992.8
2022-11-20T23:55:33.549Z,992.9
2022-11-20T23:58:01.864Z,992.9
